sensor_id;sensor_type;location;lat;lon;timestamp;P1;durP1;ratioP1;P2;durP2;ratioP2
76136;SDS011;68622;53.128;17.966;2023-04-15T00:01:25;14.60;;;7.90;;
76136;SDS011;68622;53.128;17.966;2023-04-15T00:03:52;13.00;;;7.30;;
76136;SDS011;68622;53.128;17.966;2023-04-15T00:06:22;14.20;;;7.50;;
76136;SDS011;68622;53.128;17.966;2023-04-15T00:08:48;14.90;;;7.40;;
76136;SDS011;68622;53.128;17.966;2023-04-15T00:11:15;13.70;;;7.60;;
76136;SDS011;68622;53.128;17.966;2023-04-15T00:13:43;13.40;;;7.00;;
76136;SDS011;68622;53.128;17.966;2023-04-15T00:16:09;13.10;;;7.40;;
76136;SDS011;68622;53.128;17.966;2023-04-15T00:18:36;13.70;;;7.40;;
76136;SDS011;68622;53.128;17.966;2023-04-15T00:21:02;12.20;;;6.50;;
76136;SDS011;68622;53.128;17.966;2023-04-15T00:23:29;13.10;;;7.30;;
76136;SDS011;68622;53.128;17.966;2023-04-15T00:25:56;14.10;;;7.80;;
76136;SDS011;68622;53.128;17.966;2023-04-15T00:28:22;16.80;;;7.70;;
76136;SDS011;68622;53.128;17.966;2023-04-15T00:30:47;14.10;;;7.30;;
76136;SDS011;68622;53.128;17.966;2023-04-15T00:33:13;15.60;;;7.90;;
76136;SDS011;68622;53.128;17.966;2023-04-15T00:35:41;14.80;;;8.10;;
76136;SDS011;68622;53.128;17.966;2023-04-15T00:38:07;15.60;;;8.80;;
76136;SDS011;68622;53.128;17.966;2023-04-15T00:40:33;14.00;;;8.00;;
76136;SDS011;68622;53.128;17.966;2023-04-15T00:43:00;14.00;;;8.30;;
76136;SDS011;68622;53.128;17.966;2023-04-15T00:45:26;14.80;;;8.50;;
76136;SDS011;68622;53.128;17.966;2023-04-15T00:47:54;16.30;;;8.70;;
76136;SDS011;68622;53.128;17.966;2023-04-15T00:50:20;15.20;;;7.80;;
76136;SDS011;68622;53.128;17.966;2023-04-15T00:52:47;15.20;;;8.80;;
76136;SDS011;68622;53.128;17.966;2023-04-15T00:58:36;15.10;;;8.10;;
76136;SDS011;68622;53.128;17.966;2023-04-15T01:01:02;15.70;;;8.50;;
76136;SDS011;68622;53.128;17.966;2023-04-15T01:03:29;15.30;;;8.70;;
76136;SDS011;68622;53.128;17.966;2023-04-15T01:05:55;14.30;;;8.60;;
76136;SDS011;68622;53.128;17.966;2023-04-15T01:08:27;13.70;;;8.00;;
76136;SDS011;68622;53.128;17.966;2023-04-15T01:10:57;10.30;;;9.00;;
76136;SDS011;68622;53.128;17.966;2023-04-15T01:13:26;16.10;;;9.10;;
76136;SDS011;68622;53.128;17.966;2023-04-15T01:15:52;15.80;;;9.10;;
76136;SDS011;68622;53.128;17.966;2023-04-15T01:18:20;15.40;;;8.00;;
76136;SDS011;68622;53.128;17.966;2023-04-15T01:20:48;14.60;;;7.90;;
76136;SDS011;68622;53.128;17.966;2023-04-15T01:23:14;13.80;;;8.80;;
76136;SDS011;68622;53.128;17.966;2023-04-15T01:25:41;15.00;;;8.30;;
76136;SDS011;68622;53.128;17.966;2023-04-15T01:28:08;14.40;;;8.70;;
76136;SDS011;68622;53.128;17.966;2023-04-15T01:30:35;15.50;;;8.00;;
76136;SDS011;68622;53.128;17.966;2023-04-15T01:33:01;14.70;;;7.80;;
76136;SDS011;68622;53.128;17.966;2023-04-15T01:35:27;19.40;;;8.90;;
76136;SDS011;68622;53.128;17.966;2023-04-15T01:37:53;18.10;;;9.00;;
76136;SDS011;68622;53.128;17.966;2023-04-15T01:40:25;15.10;;;8.10;;
76136;SDS011;68622;53.128;17.966;2023-04-15T01:42:51;12.60;;;7.00;;
76136;SDS011;68622;53.128;17.966;2023-04-15T01:45:17;14.80;;;8.60;;
76136;SDS011;68622;53.128;17.966;2023-04-15T01:47:43;14.80;;;8.20;;
76136;SDS011;68622;53.128;17.966;2023-04-15T01:50:09;14.70;;;8.40;;
76136;SDS011;68622;53.128;17.966;2023-04-15T01:52:35;13.10;;;7.90;;
76136;SDS011;68622;53.128;17.966;2023-04-15T01:55:01;13.50;;;7.70;;
76136;SDS011;68622;53.128;17.966;2023-04-15T01:57:27;15.30;;;7.90;;
76136;SDS011;68622;53.128;17.966;2023-04-15T01:59:53;13.20;;;8.10;;
76136;SDS011;68622;53.128;17.966;2023-04-15T02:02:20;15.00;;;8.90;;
76136;SDS011;68622;53.128;17.966;2023-04-15T02:04:46;14.80;;;8.30;;
76136;SDS011;68622;53.128;17.966;2023-04-15T02:07:12;12.80;;;8.00;;
76136;SDS011;68622;53.128;17.966;2023-04-15T02:09:38;15.00;;;8.30;;
76136;SDS011;68622;53.128;17.966;2023-04-15T02:12:08;14.70;;;8.60;;
76136;SDS011;68622;53.128;17.966;2023-04-15T02:14:34;14.90;;;8.30;;
76136;SDS011;68622;53.128;17.966;2023-04-15T02:17:00;13.70;;;7.40;;
76136;SDS011;68622;53.128;17.966;2023-04-15T02:19:32;13.60;;;7.60;;
76136;SDS011;68622;53.128;17.966;2023-04-15T02:21:58;12.80;;;7.00;;
76136;SDS011;68622;53.128;17.966;2023-04-15T02:24:26;14.30;;;7.90;;
76136;SDS011;68622;53.128;17.966;2023-04-15T02:26:53;15.00;;;7.90;;
76136;SDS011;68622;53.128;17.966;2023-04-15T02:29:21;17.70;;;8.20;;
76136;SDS011;68622;53.128;17.966;2023-04-15T02:31:48;12.60;;;7.40;;
76136;SDS011;68622;53.128;17.966;2023-04-15T02:34:14;14.00;;;8.20;;
76136;SDS011;68622;53.128;17.966;2023-04-15T02:36:43;13.40;;;7.70;;
76136;SDS011;68622;53.128;17.966;2023-04-15T02:39:09;14.00;;;8.00;;
76136;SDS011;68622;53.128;17.966;2023-04-15T02:41:35;13.50;;;7.40;;
76136;SDS011;68622;53.128;17.966;2023-04-15T02:44:02;13.50;;;7.50;;
76136;SDS011;68622;53.128;17.966;2023-04-15T02:46:28;13.30;;;7.70;;
76136;SDS011;68622;53.128;17.966;2023-04-15T02:48:54;14.50;;;7.70;;
76136;SDS011;68622;53.128;17.966;2023-04-15T02:51:21;15.20;;;7.50;;
76136;SDS011;68622;53.128;17.966;2023-04-15T02:53:47;12.50;;;7.80;;
76136;SDS011;68622;53.128;17.966;2023-04-15T02:56:14;14.70;;;8.00;;
76136;SDS011;68622;53.128;17.966;2023-04-15T02:58:42;15.20;;;7.10;;
76136;SDS011;68622;53.128;17.966;2023-04-15T03:01:10;12.80;;;7.00;;
76136;SDS011;68622;53.128;17.966;2023-04-15T03:03:37;15.40;;;7.50;;
76136;SDS011;68622;53.128;17.966;2023-04-15T03:06:03;16.80;;;8.00;;
76136;SDS011;68622;53.128;17.966;2023-04-15T03:08:29;14.20;;;8.10;;
76136;SDS011;68622;53.128;17.966;2023-04-15T03:10:56;15.90;;;7.90;;
76136;SDS011;68622;53.128;17.966;2023-04-15T03:13:25;13.90;;;7.40;;
76136;SDS011;68622;53.128;17.966;2023-04-15T03:15:52;13.60;;;7.00;;
76136;SDS011;68622;53.128;17.966;2023-04-15T03:18:18;15.50;;;7.30;;
76136;SDS011;68622;53.128;17.966;2023-04-15T03:20:44;14.20;;;8.40;;
76136;SDS011;68622;53.128;17.966;2023-04-15T03:23:11;12.20;;;6.90;;
76136;SDS011;68622;53.128;17.966;2023-04-15T03:25:37;14.10;;;7.80;;
76136;SDS011;68622;53.128;17.966;2023-04-15T03:28:05;10.80;;;7.10;;
76136;SDS011;68622;53.128;17.966;2023-04-15T03:30:31;13.80;;;7.60;;
76136;SDS011;68622;53.128;17.966;2023-04-15T03:32:57;12.80;;;6.90;;
76136;SDS011;68622;53.128;17.966;2023-04-15T03:35:24;12.90;;;7.10;;
76136;SDS011;68622;53.128;17.966;2023-04-15T03:37:50;13.60;;;7.50;;
76136;SDS011;68622;53.128;17.966;2023-04-15T03:40:16;11.60;;;7.00;;
76136;SDS011;68622;53.128;17.966;2023-04-15T03:42:42;14.90;;;7.90;;
76136;SDS011;68622;53.128;17.966;2023-04-15T03:45:08;13.80;;;7.40;;
76136;SDS011;68622;53.128;17.966;2023-04-15T03:47:34;12.60;;;7.30;;
76136;SDS011;68622;53.128;17.966;2023-04-15T03:50:00;14.10;;;8.00;;
76136;SDS011;68622;53.128;17.966;2023-04-15T03:52:26;12.00;;;7.30;;
76136;SDS011;68622;53.128;17.966;2023-04-15T03:54:52;12.20;;;7.20;;
76136;SDS011;68622;53.128;17.966;2023-04-15T03:57:18;13.30;;;7.10;;
76136;SDS011;68622;53.128;17.966;2023-04-15T03:59:43;13.90;;;7.20;;
76136;SDS011;68622;53.128;17.966;2023-04-15T04:02:09;14.40;;;8.20;;
76136;SDS011;68622;53.128;17.966;2023-04-15T04:04:35;12.50;;;7.10;;
76136;SDS011;68622;53.128;17.966;2023-04-15T04:07:01;13.80;;;8.00;;
76136;SDS011;68622;53.128;17.966;2023-04-15T04:09:27;12.40;;;6.60;;
76136;SDS011;68622;53.128;17.966;2023-04-15T04:11:53;12.30;;;7.30;;
76136;SDS011;68622;53.128;17.966;2023-04-15T04:14:19;13.80;;;7.50;;
76136;SDS011;68622;53.128;17.966;2023-04-15T04:16:45;13.80;;;7.00;;
76136;SDS011;68622;53.128;17.966;2023-04-15T04:19:11;15.40;;;7.80;;
76136;SDS011;68622;53.128;17.966;2023-04-15T04:21:39;12.60;;;7.80;;
76136;SDS011;68622;53.128;17.966;2023-04-15T04:24:05;13.50;;;7.50;;
76136;SDS011;68622;53.128;17.966;2023-04-15T04:26:31;14.40;;;7.40;;
76136;SDS011;68622;53.128;17.966;2023-04-15T04:28:57;12.90;;;8.40;;
76136;SDS011;68622;53.128;17.966;2023-04-15T04:31:22;11.80;;;7.10;;
76136;SDS011;68622;53.128;17.966;2023-04-15T04:33:48;14.70;;;8.30;;
76136;SDS011;68622;53.128;17.966;2023-04-15T04:36:14;12.90;;;7.90;;
76136;SDS011;68622;53.128;17.966;2023-04-15T04:38:40;14.30;;;9.30;;
76136;SDS011;68622;53.128;17.966;2023-04-15T04:41:06;15.50;;;8.80;;
76136;SDS011;68622;53.128;17.966;2023-04-15T04:43:32;12.40;;;6.70;;
76136;SDS011;68622;53.128;17.966;2023-04-15T04:45:58;13.10;;;7.20;;
76136;SDS011;68622;53.128;17.966;2023-04-15T04:48:23;11.00;;;6.80;;
76136;SDS011;68622;53.128;17.966;2023-04-15T04:50:49;15.20;;;7.90;;
76136;SDS011;68622;53.128;17.966;2023-04-15T04:53:16;14.90;;;7.00;;
76136;SDS011;68622;53.128;17.966;2023-04-15T04:55:42;11.80;;;6.10;;
76136;SDS011;68622;53.128;17.966;2023-04-15T04:58:08;13.30;;;7.10;;
76136;SDS011;68622;53.128;17.966;2023-04-15T05:00:34;13.50;;;8.30;;
76136;SDS011;68622;53.128;17.966;2023-04-15T05:03:00;12.70;;;6.80;;
76136;SDS011;68622;53.128;17.966;2023-04-15T05:05:26;16.40;;;8.50;;
76136;SDS011;68622;53.128;17.966;2023-04-15T05:07:52;13.30;;;7.40;;
76136;SDS011;68622;53.128;17.966;2023-04-15T05:10:17;13.60;;;7.50;;
76136;SDS011;68622;53.128;17.966;2023-04-15T05:12:43;15.00;;;7.80;;
76136;SDS011;68622;53.128;17.966;2023-04-15T05:15:09;14.50;;;8.40;;
76136;SDS011;68622;53.128;17.966;2023-04-15T05:17:36;17.70;;;9.30;;
76136;SDS011;68622;53.128;17.966;2023-04-15T05:20:02;17.20;;;10.10;;
76136;SDS011;68622;53.128;17.966;2023-04-15T05:22:28;15.20;;;8.60;;
76136;SDS011;68622;53.128;17.966;2023-04-15T05:24:54;18.70;;;12.80;;
76136;SDS011;68622;53.128;17.966;2023-04-15T05:27:20;14.90;;;8.30;;
76136;SDS011;68622;53.128;17.966;2023-04-15T05:29:47;14.50;;;8.30;;
76136;SDS011;68622;53.128;17.966;2023-04-15T05:32:13;15.10;;;8.50;;
76136;SDS011;68622;53.128;17.966;2023-04-15T05:34:39;14.90;;;8.70;;
76136;SDS011;68622;53.128;17.966;2023-04-15T05:37:04;13.00;;;7.70;;
76136;SDS011;68622;53.128;17.966;2023-04-15T05:39:30;16.60;;;7.30;;
76136;SDS011;68622;53.128;17.966;2023-04-15T05:41:57;11.90;;;7.20;;
76136;SDS011;68622;53.128;17.966;2023-04-15T05:44:23;13.70;;;8.10;;
76136;SDS011;68622;53.128;17.966;2023-04-15T05:46:49;14.10;;;7.90;;
76136;SDS011;68622;53.128;17.966;2023-04-15T05:49:14;15.70;;;7.90;;
76136;SDS011;68622;53.128;17.966;2023-04-15T05:51:40;14.80;;;7.60;;
76136;SDS011;68622;53.128;17.966;2023-04-15T05:54:06;15.50;;;7.50;;
76136;SDS011;68622;53.128;17.966;2023-04-15T05:56:32;14.20;;;7.90;;
76136;SDS011;68622;53.128;17.966;2023-04-15T05:58:58;14.50;;;7.60;;
76136;SDS011;68622;53.128;17.966;2023-04-15T06:01:24;12.20;;;7.20;;
76136;SDS011;68622;53.128;17.966;2023-04-15T06:03:50;15.50;;;7.80;;
76136;SDS011;68622;53.128;17.966;2023-04-15T06:06:16;12.00;;;7.20;;
76136;SDS011;68622;53.128;17.966;2023-04-15T06:08:42;13.80;;;7.80;;
76136;SDS011;68622;53.128;17.966;2023-04-15T06:11:08;13.20;;;7.30;;
76136;SDS011;68622;53.128;17.966;2023-04-15T06:13:34;13.60;;;8.50;;
76136;SDS011;68622;53.128;17.966;2023-04-15T06:16:00;12.30;;;7.10;;
76136;SDS011;68622;53.128;17.966;2023-04-15T06:18:26;13.60;;;7.40;;
76136;SDS011;68622;53.128;17.966;2023-04-15T06:20:51;14.10;;;7.30;;
76136;SDS011;68622;53.128;17.966;2023-04-15T06:23:17;13.80;;;7.60;;
76136;SDS011;68622;53.128;17.966;2023-04-15T06:25:43;13.20;;;7.80;;
76136;SDS011;68622;53.128;17.966;2023-04-15T06:28:09;14.90;;;8.80;;
76136;SDS011;68622;53.128;17.966;2023-04-15T06:30:35;15.00;;;7.90;;
76136;SDS011;68622;53.128;17.966;2023-04-15T06:33:01;19.30;;;8.90;;
76136;SDS011;68622;53.128;17.966;2023-04-15T06:35:30;14.00;;;8.70;;
76136;SDS011;68622;53.128;17.966;2023-04-15T06:37:56;12.80;;;7.90;;
76136;SDS011;68622;53.128;17.966;2023-04-15T06:40:22;13.40;;;8.50;;
76136;SDS011;68622;53.128;17.966;2023-04-15T06:42:47;16.50;;;9.90;;
76136;SDS011;68622;53.128;17.966;2023-04-15T06:45:14;15.00;;;10.20;;
76136;SDS011;68622;53.128;17.966;2023-04-15T06:47:40;17.60;;;9.30;;
76136;SDS011;68622;53.128;17.966;2023-04-15T06:50:06;14.30;;;8.50;;
76136;SDS011;68622;53.128;17.966;2023-04-15T06:52:34;16.10;;;9.00;;
76136;SDS011;68622;53.128;17.966;2023-04-15T06:55:00;15.20;;;9.40;;
76136;SDS011;68622;53.128;17.966;2023-04-15T06:57:26;16.10;;;9.60;;
76136;SDS011;68622;53.128;17.966;2023-04-15T06:59:54;14.80;;;10.10;;
76136;SDS011;68622;53.128;17.966;2023-04-15T07:02:20;19.50;;;11.40;;
76136;SDS011;68622;53.128;17.966;2023-04-15T07:04:46;20.90;;;11.60;;
76136;SDS011;68622;53.128;17.966;2023-04-15T07:07:13;18.30;;;11.50;;
76136;SDS011;68622;53.128;17.966;2023-04-15T07:09:40;17.40;;;11.10;;
76136;SDS011;68622;53.128;17.966;2023-04-15T07:12:06;20.30;;;11.80;;
76136;SDS011;68622;53.128;17.966;2023-04-15T07:14:32;18.90;;;11.00;;
76136;SDS011;68622;53.128;17.966;2023-04-15T07:16:58;18.20;;;10.90;;
76136;SDS011;68622;53.128;17.966;2023-04-15T07:19:23;18.90;;;11.90;;
76136;SDS011;68622;53.128;17.966;2023-04-15T07:21:49;18.50;;;11.40;;
76136;SDS011;68622;53.128;17.966;2023-04-15T07:24:15;18.60;;;10.60;;
76136;SDS011;68622;53.128;17.966;2023-04-15T07:26:43;16.70;;;10.20;;
76136;SDS011;68622;53.128;17.966;2023-04-15T07:29:09;17.90;;;10.40;;
76136;SDS011;68622;53.128;17.966;2023-04-15T07:31:35;16.40;;;10.20;;
76136;SDS011;68622;53.128;17.966;2023-04-15T07:34:05;16.70;;;9.50;;
76136;SDS011;68622;53.128;17.966;2023-04-15T07:36:31;19.20;;;12.20;;
76136;SDS011;68622;53.128;17.966;2023-04-15T07:38:57;17.40;;;10.90;;
76136;SDS011;68622;53.128;17.966;2023-04-15T07:41:23;15.90;;;9.30;;
76136;SDS011;68622;53.128;17.966;2023-04-15T07:43:50;18.50;;;10.90;;
76136;SDS011;68622;53.128;17.966;2023-04-15T07:46:16;15.70;;;10.20;;
76136;SDS011;68622;53.128;17.966;2023-04-15T07:48:42;17.10;;;10.00;;
76136;SDS011;68622;53.128;17.966;2023-04-15T07:51:08;16.80;;;10.40;;
76136;SDS011;68622;53.128;17.966;2023-04-15T07:53:35;18.60;;;10.60;;
76136;SDS011;68622;53.128;17.966;2023-04-15T07:56:01;17.80;;;11.00;;
76136;SDS011;68622;53.128;17.966;2023-04-15T07:58:27;18.30;;;11.60;;
76136;SDS011;68622;53.128;17.966;2023-04-15T08:00:53;16.10;;;10.50;;
76136;SDS011;68622;53.128;17.966;2023-04-15T08:03:20;17.50;;;10.20;;
76136;SDS011;68622;53.128;17.966;2023-04-15T08:05:47;17.40;;;10.50;;
76136;SDS011;68622;53.128;17.966;2023-04-15T08:08:13;18.10;;;11.30;;
76136;SDS011;68622;53.128;17.966;2023-04-15T08:10:39;19.50;;;11.60;;
76136;SDS011;68622;53.128;17.966;2023-04-15T08:13:05;19.60;;;11.10;;
76136;SDS011;68622;53.128;17.966;2023-04-15T08:15:31;17.90;;;10.60;;
76136;SDS011;68622;53.128;17.966;2023-04-15T08:17:57;15.10;;;10.30;;
76136;SDS011;68622;53.128;17.966;2023-04-15T08:20:25;16.50;;;10.60;;
76136;SDS011;68622;53.128;17.966;2023-04-15T08:22:51;15.80;;;10.00;;
76136;SDS011;68622;53.128;17.966;2023-04-15T08:25:18;18.20;;;10.80;;
76136;SDS011;68622;53.128;17.966;2023-04-15T08:27:47;17.50;;;10.30;;
76136;SDS011;68622;53.128;17.966;2023-04-15T08:30:13;14.60;;;10.10;;
76136;SDS011;68622;53.128;17.966;2023-04-15T08:32:41;17.80;;;10.20;;
76136;SDS011;68622;53.128;17.966;2023-04-15T08:35:10;23.50;;;17.40;;
76136;SDS011;68622;53.128;17.966;2023-04-15T08:37:37;15.00;;;10.10;;
76136;SDS011;68622;53.128;17.966;2023-04-15T08:40:03;16.40;;;10.00;;
76136;SDS011;68622;53.128;17.966;2023-04-15T08:42:30;14.80;;;9.20;;
76136;SDS011;68622;53.128;17.966;2023-04-15T08:44:59;17.40;;;10.50;;
76136;SDS011;68622;53.128;17.966;2023-04-15T08:47:27;16.50;;;9.90;;
76136;SDS011;68622;53.128;17.966;2023-04-15T08:49:56;13.30;;;8.90;;
76136;SDS011;68622;53.128;17.966;2023-04-15T08:52:24;18.30;;;10.40;;
76136;SDS011;68622;53.128;17.966;2023-04-15T08:54:51;19.90;;;10.60;;
76136;SDS011;68622;53.128;17.966;2023-04-15T08:57:24;15.30;;;9.10;;
76136;SDS011;68622;53.128;17.966;2023-04-15T08:59:52;18.00;;;10.10;;
76136;SDS011;68622;53.128;17.966;2023-04-15T09:02:20;15.00;;;9.40;;
76136;SDS011;68622;53.128;17.966;2023-04-15T09:04:47;14.40;;;9.40;;
76136;SDS011;68622;53.128;17.966;2023-04-15T09:07:13;15.30;;;9.70;;
76136;SDS011;68622;53.128;17.966;2023-04-15T09:09:39;18.50;;;9.80;;
76136;SDS011;68622;53.128;17.966;2023-04-15T09:12:07;17.30;;;10.70;;
76136;SDS011;68622;53.128;17.966;2023-04-15T09:14:34;19.80;;;12.70;;
76136;SDS011;68622;53.128;17.966;2023-04-15T09:17:00;16.50;;;9.40;;
76136;SDS011;68622;53.128;17.966;2023-04-15T09:19:27;18.00;;;12.10;;
76136;SDS011;68622;53.128;17.966;2023-04-15T09:21:55;16.70;;;10.10;;
76136;SDS011;68622;53.128;17.966;2023-04-15T09:24:22;19.00;;;10.30;;
76136;SDS011;68622;53.128;17.966;2023-04-15T09:26:52;19.60;;;12.90;;
76136;SDS011;68622;53.128;17.966;2023-04-15T09:29:24;19.70;;;11.70;;
76136;SDS011;68622;53.128;17.966;2023-04-15T09:31:51;17.10;;;10.70;;
76136;SDS011;68622;53.128;17.966;2023-04-15T09:34:18;29.70;;;20.70;;
76136;SDS011;68622;53.128;17.966;2023-04-15T09:39:14;16.40;;;10.50;;
76136;SDS011;68622;53.128;17.966;2023-04-15T09:41:40;19.10;;;12.60;;
76136;SDS011;68622;53.128;17.966;2023-04-15T09:44:21;14.90;;;9.60;;
76136;SDS011;68622;53.128;17.966;2023-04-15T09:46:51;16.60;;;11.90;;
76136;SDS011;68622;53.128;17.966;2023-04-15T09:49:16;17.20;;;10.00;;
76136;SDS011;68622;53.128;17.966;2023-04-15T09:51:42;14.70;;;9.00;;
76136;SDS011;68622;53.128;17.966;2023-04-15T09:54:08;17.50;;;9.20;;
76136;SDS011;68622;53.128;17.966;2023-04-15T09:56:35;16.30;;;8.60;;
76136;SDS011;68622;53.128;17.966;2023-04-15T09:59:06;22.90;;;11.80;;
76136;SDS011;68622;53.128;17.966;2023-04-15T10:01:33;17.90;;;10.00;;
76136;SDS011;68622;53.128;17.966;2023-04-15T10:04:02;21.60;;;11.20;;
76136;SDS011;68622;53.128;17.966;2023-04-15T10:06:29;15.00;;;8.90;;
76136;SDS011;68622;53.128;17.966;2023-04-15T10:08:56;49.60;;;16.90;;
76136;SDS011;68622;53.128;17.966;2023-04-15T10:11:23;16.20;;;9.30;;
76136;SDS011;68622;53.128;17.966;2023-04-15T10:13:53;18.90;;;11.00;;
76136;SDS011;68622;53.128;17.966;2023-04-15T10:16:20;16.50;;;9.30;;
76136;SDS011;68622;53.128;17.966;2023-04-15T10:18:55;17.00;;;9.30;;
76136;SDS011;68622;53.128;17.966;2023-04-15T10:21:21;18.80;;;10.20;;
76136;SDS011;68622;53.128;17.966;2023-04-15T10:23:48;15.10;;;9.70;;
76136;SDS011;68622;53.128;17.966;2023-04-15T10:26:15;20.20;;;11.90;;
76136;SDS011;68622;53.128;17.966;2023-04-15T10:28:42;14.40;;;9.30;;
76136;SDS011;68622;53.128;17.966;2023-04-15T10:31:12;16.80;;;9.60;;
76136;SDS011;68622;53.128;17.966;2023-04-15T10:33:43;15.30;;;8.70;;
76136;SDS011;68622;53.128;17.966;2023-04-15T10:36:10;16.60;;;8.90;;
76136;SDS011;68622;53.128;17.966;2023-04-15T10:41:16;23.40;;;9.70;;
76136;SDS011;68622;53.128;17.966;2023-04-15T10:43:48;16.30;;;10.30;;
76136;SDS011;68622;53.128;17.966;2023-04-15T10:46:23;15.50;;;8.80;;
76136;SDS011;68622;53.128;17.966;2023-04-15T10:51:38;15.30;;;7.90;;
76136;SDS011;68622;53.128;17.966;2023-04-15T10:54:13;15.10;;;9.40;;
76136;SDS011;68622;53.128;17.966;2023-04-15T10:56:44;14.40;;;7.80;;
76136;SDS011;68622;53.128;17.966;2023-04-15T10:59:10;15.60;;;9.60;;
76136;SDS011;68622;53.128;17.966;2023-04-15T11:01:49;14.70;;;8.20;;
76136;SDS011;68622;53.128;17.966;2023-04-15T11:04:49;14.00;;;8.10;;
76136;SDS011;68622;53.128;17.966;2023-04-15T11:07:34;14.80;;;8.60;;
76136;SDS011;68622;53.128;17.966;2023-04-15T11:12:42;14.80;;;8.80;;
76136;SDS011;68622;53.128;17.966;2023-04-15T11:17:50;13.10;;;8.10;;
76136;SDS011;68622;53.128;17.966;2023-04-15T11:20:16;17.00;;;9.60;;
76136;SDS011;68622;53.128;17.966;2023-04-15T11:22:49;13.60;;;8.30;;
76136;SDS011;68622;53.128;17.966;2023-04-15T11:25:27;12.80;;;7.60;;
76136;SDS011;68622;53.128;17.966;2023-04-15T11:27:54;17.70;;;8.20;;
76136;SDS011;68622;53.128;17.966;2023-04-15T11:30:25;12.20;;;6.90;;
76136;SDS011;68622;53.128;17.966;2023-04-15T11:32:53;16.70;;;8.30;;
76136;SDS011;68622;53.128;17.966;2023-04-15T11:35:22;13.50;;;7.30;;
76136;SDS011;68622;53.128;17.966;2023-04-15T11:37:49;11.90;;;7.50;;
76136;SDS011;68622;53.128;17.966;2023-04-15T11:40:22;16.40;;;7.60;;
76136;SDS011;68622;53.128;17.966;2023-04-15T11:43:07;14.00;;;7.70;;
76136;SDS011;68622;53.128;17.966;2023-04-15T11:45:46;14.70;;;8.20;;
76136;SDS011;68622;53.128;17.966;2023-04-15T11:48:12;15.40;;;8.70;;
76136;SDS011;68622;53.128;17.966;2023-04-15T11:50:39;16.00;;;9.60;;
76136;SDS011;68622;53.128;17.966;2023-04-15T11:53:06;18.30;;;8.70;;
76136;SDS011;68622;53.128;17.966;2023-04-15T11:55:41;14.40;;;8.00;;
76136;SDS011;68622;53.128;17.966;2023-04-15T11:58:16;16.80;;;8.30;;
76136;SDS011;68622;53.128;17.966;2023-04-15T12:00:59;14.90;;;8.20;;
76136;SDS011;68622;53.128;17.966;2023-04-15T12:13:56;16.40;;;9.10;;
76136;SDS011;68622;53.128;17.966;2023-04-15T12:16:22;17.10;;;9.10;;
76136;SDS011;68622;53.128;17.966;2023-04-15T12:18:50;13.20;;;7.40;;
76136;SDS011;68622;53.128;17.966;2023-04-15T12:21:18;16.30;;;7.80;;
76136;SDS011;68622;53.128;17.966;2023-04-15T12:23:49;12.10;;;7.00;;
76136;SDS011;68622;53.128;17.966;2023-04-15T12:26:28;13.50;;;6.90;;
76136;SDS011;68622;53.128;17.966;2023-04-15T12:29:00;16.80;;;7.30;;
76136;SDS011;68622;53.128;17.966;2023-04-15T12:31:27;11.80;;;6.70;;
76136;SDS011;68622;53.128;17.966;2023-04-15T12:33:54;11.80;;;6.60;;
76136;SDS011;68622;53.128;17.966;2023-04-15T12:36:21;15.80;;;8.10;;
76136;SDS011;68622;53.128;17.966;2023-04-15T12:38:48;12.70;;;7.40;;
76136;SDS011;68622;53.128;17.966;2023-04-15T12:41:14;12.60;;;7.40;;
76136;SDS011;68622;53.128;17.966;2023-04-15T12:43:40;13.50;;;8.40;;
76136;SDS011;68622;53.128;17.966;2023-04-15T12:46:09;12.60;;;7.40;;
76136;SDS011;68622;53.128;17.966;2023-04-15T12:48:35;13.00;;;7.00;;
76136;SDS011;68622;53.128;17.966;2023-04-15T12:51:01;14.50;;;7.60;;
76136;SDS011;68622;53.128;17.966;2023-04-15T12:53:27;14.80;;;8.30;;
76136;SDS011;68622;53.128;17.966;2023-04-15T12:55:53;14.10;;;8.30;;
76136;SDS011;68622;53.128;17.966;2023-04-15T12:58:19;16.00;;;9.30;;
76136;SDS011;68622;53.128;17.966;2023-04-15T13:00:46;14.50;;;8.10;;
76136;SDS011;68622;53.128;17.966;2023-04-15T13:03:11;13.00;;;8.20;;
76136;SDS011;68622;53.128;17.966;2023-04-15T13:05:37;16.80;;;9.10;;
76136;SDS011;68622;53.128;17.966;2023-04-15T13:08:04;15.00;;;8.90;;
76136;SDS011;68622;53.128;17.966;2023-04-15T13:10:31;13.10;;;7.40;;
76136;SDS011;68622;53.128;17.966;2023-04-15T13:12:57;14.70;;;8.20;;
76136;SDS011;68622;53.128;17.966;2023-04-15T13:15:23;13.20;;;7.90;;
76136;SDS011;68622;53.128;17.966;2023-04-15T13:17:50;13.40;;;7.40;;
76136;SDS011;68622;53.128;17.966;2023-04-15T13:20:16;12.40;;;8.40;;
76136;SDS011;68622;53.128;17.966;2023-04-15T13:22:42;14.10;;;7.30;;
76136;SDS011;68622;53.128;17.966;2023-04-15T13:25:08;13.70;;;7.30;;
76136;SDS011;68622;53.128;17.966;2023-04-15T13:27:34;10.90;;;6.50;;
76136;SDS011;68622;53.128;17.966;2023-04-15T13:30:00;12.10;;;7.10;;
76136;SDS011;68622;53.128;17.966;2023-04-15T13:32:26;14.10;;;9.30;;
76136;SDS011;68622;53.128;17.966;2023-04-15T13:34:52;12.60;;;7.90;;
76136;SDS011;68622;53.128;17.966;2023-04-15T13:37:19;13.70;;;8.30;;
76136;SDS011;68622;53.128;17.966;2023-04-15T13:39:45;11.20;;;7.40;;
76136;SDS011;68622;53.128;17.966;2023-04-15T13:42:11;13.20;;;7.80;;
76136;SDS011;68622;53.128;17.966;2023-04-15T13:44:37;11.30;;;6.30;;
76136;SDS011;68622;53.128;17.966;2023-04-15T13:47:03;11.50;;;6.60;;
76136;SDS011;68622;53.128;17.966;2023-04-15T13:49:29;11.40;;;6.60;;
76136;SDS011;68622;53.128;17.966;2023-04-15T13:51:55;12.90;;;7.50;;
76136;SDS011;68622;53.128;17.966;2023-04-15T13:54:21;12.60;;;7.10;;
76136;SDS011;68622;53.128;17.966;2023-04-15T13:56:47;11.20;;;6.40;;
76136;SDS011;68622;53.128;17.966;2023-04-15T13:59:13;11.90;;;7.00;;
76136;SDS011;68622;53.128;17.966;2023-04-15T14:01:39;12.40;;;7.00;;
76136;SDS011;68622;53.128;17.966;2023-04-15T14:04:05;11.50;;;6.60;;
76136;SDS011;68622;53.128;17.966;2023-04-15T14:06:31;11.70;;;6.20;;
76136;SDS011;68622;53.128;17.966;2023-04-15T14:08:57;13.70;;;6.60;;
76136;SDS011;68622;53.128;17.966;2023-04-15T14:11:23;11.40;;;6.30;;
76136;SDS011;68622;53.128;17.966;2023-04-15T14:13:49;12.10;;;6.60;;
76136;SDS011;68622;53.128;17.966;2023-04-15T14:16:15;13.00;;;7.30;;
76136;SDS011;68622;53.128;17.966;2023-04-15T14:18:42;12.10;;;6.60;;
76136;SDS011;68622;53.128;17.966;2023-04-15T14:21:08;11.60;;;6.30;;
76136;SDS011;68622;53.128;17.966;2023-04-15T14:23:35;13.60;;;6.90;;
76136;SDS011;68622;53.128;17.966;2023-04-15T14:26:00;10.70;;;5.90;;
76136;SDS011;68622;53.128;17.966;2023-04-15T14:28:26;10.90;;;6.00;;
76136;SDS011;68622;53.128;17.966;2023-04-15T14:30:52;11.40;;;6.40;;
76136;SDS011;68622;53.128;17.966;2023-04-15T14:33:18;10.70;;;6.00;;
76136;SDS011;68622;53.128;17.966;2023-04-15T14:35:44;12.60;;;6.50;;
76136;SDS011;68622;53.128;17.966;2023-04-15T14:38:10;10.50;;;5.50;;
76136;SDS011;68622;53.128;17.966;2023-04-15T14:40:36;11.80;;;6.20;;
76136;SDS011;68622;53.128;17.966;2023-04-15T14:43:02;11.80;;;6.20;;
76136;SDS011;68622;53.128;17.966;2023-04-15T14:45:28;11.30;;;5.30;;